sensor_id;sensor_type;location;lat;lon;timestamp;pressure;altitude;pressure_sealevel;temperature;humidity
45403;BME280;47427;51.976;5.326;2023-04-23T00:02:47;100728.38;;;7.39;100.00
45403;BME280;47427;51.976;5.326;2023-04-23T00:06:14;100727.31;;;7.34;100.00
45403;BME280;47427;51.976;5.326;2023-04-23T00:09:38;100723.78;;;7.32;100.00
45403;BME280;47427;51.976;5.326;2023-04-23T00:13:01;100717.53;;;7.28;100.00
45403;BME280;47427;51.976;5.326;2023-04-23T00:16:24;100718.41;;;7.29;100.00
45403;BME280;47427;51.976;5.326;2023-04-23T00:19:47;100715.09;;;7.33;100.00
45403;BME280;47427;51.976;5.326;2023-04-23T00:23:09;100704.84;;;7.37;100.00
45403;BME280;47427;51.976;5.326;2023-04-23T00:26:31;100707.56;;;7.41;100.00
45403;BME280;47427;51.976;5.326;2023-04-23T00:29:54;100702.84;;;7.30;100.00
45403;BME280;47427;51.976;5.326;2023-04-23T00:33:17;100703.72;;;7.31;100.00
45403;BME280;47427;51.976;5.326;2023-04-23T00:36:38;100697.00;;;7.37;100.00
45403;BME280;47427;51.976;5.326;2023-04-23T00:40:01;100691.69;;;7.34;100.00
45403;BME280;47427;51.976;5.326;2023-04-23T00:43:25;100687.38;;;7.36;100.00
45403;BME280;47427;51.976;5.326;2023-04-23T00:46:47;100684.16;;;7.44;100.00
45403;BME280;47427;51.976;5.326;2023-04-23T00:50:11;100684.78;;;7.60;100.00
45403;BME280;47427;51.976;5.326;2023-04-23T00:53:34;100683.66;;;7.78;100.00
45403;BME280;47427;51.976;5.326;2023-04-23T00:56:57;100678.53;;;7.81;100.00
45403;BME280;47427;51.976;5.326;2023-04-23T01:00:21;100669.91;;;7.84;100.00
45403;BME280;47427;51.976;5.326;2023-04-23T01:03:43;100665.41;;;7.79;100.00
45403;BME280;47427;51.976;5.326;2023-04-23T01:07:06;100670.75;;;7.82;100.00
45403;BME280;47427;51.976;5.326;2023-04-23T01:10:30;100661.81;;;7.76;100.00
45403;BME280;47427;51.976;5.326;2023-04-23T01:13:53;100657.16;;;7.93;100.00
45403;BME280;47427;51.976;5.326;2023-04-23T01:17:16;100654.59;;;7.94;100.00
45403;BME280;47427;51.976;5.326;2023-04-23T01:20:38;100645.19;;;7.99;100.00
45403;BME280;47427;51.976;5.326;2023-04-23T01:24:03;100644.84;;;7.89;100.00
45403;BME280;47427;51.976;5.326;2023-04-23T01:27:26;100645.97;;;7.97;100.00
45403;BME280;47427;51.976;5.326;2023-04-23T01:30:48;100641.84;;;8.03;100.00
45403;BME280;47427;51.976;5.326;2023-04-23T01:34:11;100641.84;;;8.03;100.00
45403;BME280;47427;51.976;5.326;2023-04-23T01:37:37;100641.09;;;8.08;100.00
45403;BME280;47427;51.976;5.326;2023-04-23T01:40:58;100644.63;;;8.08;100.00
45403;BME280;47427;51.976;5.326;2023-04-23T01:44:21;100634.34;;;8.14;100.00
45403;BME280;47427;51.976;5.326;2023-04-23T01:47:43;100631.09;;;8.21;100.00
45403;BME280;47427;51.976;5.326;2023-04-23T01:51:05;100620.81;;;8.26;100.00
45403;BME280;47427;51.976;5.326;2023-04-23T01:54:28;100628.09;;;8.36;100.00
45403;BME280;47427;51.976;5.326;2023-04-23T01:57:50;100623.81;;;8.38;100.00
45403;BME280;47427;51.976;5.326;2023-04-23T02:01:45;100619.53;;;8.40;100.00
45403;BME280;47427;51.976;5.326;2023-04-23T02:05:16;100615.91;;;8.37;100.00
45403;BME280;47427;51.976;5.326;2023-04-23T02:08:40;100621.06;;;8.35;100.00
45403;BME280;47427;51.976;5.326;2023-04-23T02:12:03;100617.66;;;8.38;100.00
45403;BME280;47427;51.976;5.326;2023-04-23T02:15:25;100613.22;;;8.35;100.00
45403;BME280;47427;51.976;5.326;2023-04-23T02:18:48;100611.88;;;8.46;100.00
45403;BME280;47427;51.976;5.326;2023-04-23T02:22:11;100612.09;;;8.25;100.00
45403;BME280;47427;51.976;5.326;2023-04-23T02:25:33;100602.28;;;8.20;100.00
45403;BME280;47427;51.976;5.326;2023-04-23T02:28:56;100599.81;;;8.23;100.00
45403;BME280;47427;51.976;5.326;2023-04-23T02:32:17;100604.50;;;8.35;100.00
45403;BME280;47427;51.976;5.326;2023-04-23T02:35:40;100595.34;;;8.48;100.00
45403;BME280;47427;51.976;5.326;2023-04-23T02:39:03;100589.94;;;8.41;100.00
45403;BME280;47427;51.976;5.326;2023-04-23T02:42:25;100593.03;;;8.30;100.00
45403;BME280;47427;51.976;5.326;2023-04-23T02:45:48;100602.59;;;8.29;100.00
45403;BME280;47427;51.976;5.326;2023-04-23T02:49:11;100600.03;;;8.31;100.00
45403;BME280;47427;51.976;5.326;2023-04-23T02:52:33;100601.25;;;8.15;100.00
45403;BME280;47427;51.976;5.326;2023-04-23T02:55:56;100602.06;;;8.12;100.00
45403;BME280;47427;51.976;5.326;2023-04-23T02:59:18;100606.94;;;8.29;100.00
45403;BME280;47427;51.976;5.326;2023-04-23T03:02:59;100603.22;;;8.20;100.00
45403;BME280;47427;51.976;5.326;2023-04-23T03:06:21;100612.03;;;8.24;100.00
45403;BME280;47427;51.976;5.326;2023-04-23T03:09:44;100607.41;;;8.15;100.00
45403;BME280;47427;51.976;5.326;2023-04-23T03:13:06;100606.22;;;8.06;100.00
45403;BME280;47427;51.976;5.326;2023-04-23T03:16:29;100594.72;;;8.00;100.00
45403;BME280;47427;51.976;5.326;2023-04-23T03:19:52;100597.88;;;7.90;100.00
45403;BME280;47427;51.976;5.326;2023-04-23T03:23:16;100592.53;;;7.87;100.00
45403;BME280;47427;51.976;5.326;2023-04-23T03:26:38;100595.91;;;7.83;100.00
45403;BME280;47427;51.976;5.326;2023-04-23T03:30:00;100589.97;;;7.89;100.00
45403;BME280;47427;51.976;5.326;2023-04-23T03:33:23;100592.34;;;7.81;100.00
45403;BME280;47427;51.976;5.326;2023-04-23T03:36:45;100598.28;;;7.77;100.00
45403;BME280;47427;51.976;5.326;2023-04-23T03:40:11;100599.03;;;7.73;100.00
45403;BME280;47427;51.976;5.326;2023-04-23T03:43:35;100596.28;;;7.68;100.00
45403;BME280;47427;51.976;5.326;2023-04-23T03:46:57;100593.75;;;7.71;100.00
45403;BME280;47427;51.976;5.326;2023-04-23T03:50:20;100604.44;;;7.79;100.00
45403;BME280;47427;51.976;5.326;2023-04-23T03:53:51;100590.25;;;7.71;100.00
45403;BME280;47427;51.976;5.326;2023-04-23T03:57:26;100584.28;;;7.49;100.00
45403;BME280;47427;51.976;5.326;2023-04-23T04:01:01;100575.47;;;7.46;100.00
45403;BME280;47427;51.976;5.326;2023-04-23T04:04:23;100578.72;;;7.38;100.00
45403;BME280;47427;51.976;5.326;2023-04-23T04:07:46;100579.47;;;7.34;100.00
45403;BME280;47427;51.976;5.326;2023-04-23T04:11:07;100582.09;;;7.36;100.00
45403;BME280;47427;51.976;5.326;2023-04-23T04:14:31;100576.00;;;7.35;100.00
45403;BME280;47427;51.976;5.326;2023-04-23T04:17:54;100576.84;;;7.34;100.00
45403;BME280;47427;51.976;5.326;2023-04-23T04:21:15;100578.53;;;7.34;100.00
45403;BME280;47427;51.976;5.326;2023-04-23T04:24:38;100582.44;;;7.45;100.00
45403;BME280;47427;51.976;5.326;2023-04-23T04:28:03;100577.84;;;7.38;100.00
45403;BME280;47427;51.976;5.326;2023-04-23T04:31:25;100586.78;;;7.45;100.00
45403;BME280;47427;51.976;5.326;2023-04-23T04:34:49;100576.59;;;7.52;100.00
45403;BME280;47427;51.976;5.326;2023-04-23T04:38:11;100580.13;;;7.54;100.00
45403;BME280;47427;51.976;5.326;2023-04-23T04:41:35;100581.81;;;7.78;100.00
45403;BME280;47427;51.976;5.326;2023-04-23T04:44:58;100591.50;;;7.82;100.00
45403;BME280;47427;51.976;5.326;2023-04-23T04:48:20;100594.31;;;7.88;100.00
45403;BME280;47427;51.976;5.326;2023-04-23T04:51:43;100585.44;;;7.83;100.00
45403;BME280;47427;51.976;5.326;2023-04-23T04:55:06;100597.75;;;7.87;100.00
45403;BME280;47427;51.976;5.326;2023-04-23T04:58:28;100589.56;;;7.76;100.00
45403;BME280;47427;51.976;5.326;2023-04-23T05:01:50;100584.78;;;7.63;100.00
45403;BME280;47427;51.976;5.326;2023-04-23T05:05:12;100582.69;;;7.53;100.00
45403;BME280;47427;51.976;5.326;2023-04-23T05:08:35;100583.56;;;7.53;100.00
45403;BME280;47427;51.976;5.326;2023-04-23T05:11:58;100576.63;;;7.54;100.00
45403;BME280;47427;51.976;5.326;2023-04-23T05:15:19;100586.38;;;7.59;100.00
45403;BME280;47427;51.976;5.326;2023-04-23T05:18:42;100586.53;;;7.64;100.00
45403;BME280;47427;51.976;5.326;2023-04-23T05:22:05;100583.47;;;7.76;100.00
45403;BME280;47427;51.976;5.326;2023-04-23T05:25:28;100584.66;;;7.86;100.00
45403;BME280;47427;51.976;5.326;2023-04-23T05:28:51;100589.53;;;8.02;100.00
45403;BME280;47427;51.976;5.326;2023-04-23T05:32:13;100581.84;;;8.07;100.00
45403;BME280;47427;51.976;5.326;2023-04-23T05:35:35;100578.59;;;8.14;100.00
45403;BME280;47427;51.976;5.326;2023-04-23T05:38:58;100577.44;;;8.33;100.00
45403;BME280;47427;51.976;5.326;2023-04-23T05:42:20;100582.28;;;8.48;100.00
45403;BME280;47427;51.976;5.326;2023-04-23T05:46:01;100581.06;;;8.65;100.00
45403;BME280;47427;51.976;5.326;2023-04-23T05:49:24;100586.38;;;8.68;100.00
45403;BME280;47427;51.976;5.326;2023-04-23T05:52:47;100586.13;;;8.89;100.00
45403;BME280;47427;51.976;5.326;2023-04-23T05:56:10;100582.13;;;9.02;100.00
45403;BME280;47427;51.976;5.326;2023-04-23T05:59:32;100580.69;;;9.13;100.00
45403;BME280;47427;51.976;5.326;2023-04-23T06:02:54;100579.41;;;9.30;100.00
45403;BME280;47427;51.976;5.326;2023-04-23T06:06:17;100574.53;;;9.44;100.00
45403;BME280;47427;51.976;5.326;2023-04-23T06:09:39;100575.59;;;9.51;100.00
45403;BME280;47427;51.976;5.326;2023-04-23T06:13:01;100571.91;;;9.77;100.00
45403;BME280;47427;51.976;5.326;2023-04-23T06:16:24;100574.28;;;10.05;100.00
45403;BME280;47427;51.976;5.326;2023-04-23T06:19:46;100565.41;;;9.98;100.00
45403;BME280;47427;51.976;5.326;2023-04-23T06:23:11;100573.88;;;10.24;100.00
45403;BME280;47427;51.976;5.326;2023-04-23T06:26:33;100567.28;;;10.81;100.00
45403;BME280;47427;51.976;5.326;2023-04-23T06:30:05;100559.25;;;11.17;100.00
45403;BME280;47427;51.976;5.326;2023-04-23T06:33:30;100557.22;;;11.02;100.00
45403;BME280;47427;51.976;5.326;2023-04-23T06:36:53;100543.16;;;10.99;100.00
45403;BME280;47427;51.976;5.326;2023-04-23T06:40:15;100538.81;;;10.99;100.00
45403;BME280;47427;51.976;5.326;2023-04-23T06:43:37;100548.44;;;11.00;100.00
45403;BME280;47427;51.976;5.326;2023-04-23T06:47:19;100527.81;;;11.20;100.00
45403;BME280;47427;51.976;5.326;2023-04-23T06:50:41;100539.63;;;11.45;100.00
45403;BME280;47427;51.976;5.326;2023-04-23T06:54:02;100533.78;;;12.82;100.00
45403;BME280;47427;51.976;5.326;2023-04-23T06:57:25;100531.94;;;14.90;100.00
45403;BME280;47427;51.976;5.326;2023-04-23T07:00:48;100530.34;;;15.89;100.00
45403;BME280;47427;51.976;5.326;2023-04-23T07:04:09;100531.97;;;16.56;100.00
45403;BME280;47427;51.976;5.326;2023-04-23T07:07:31;100537.75;;;17.43;100.00
45403;BME280;47427;51.976;5.326;2023-04-23T07:10:54;100529.81;;;17.37;94.65
45403;BME280;47427;51.976;5.326;2023-04-23T07:14:17;100533.44;;;18.33;90.23
45403;BME280;47427;51.976;5.326;2023-04-23T07:17:39;100532.34;;;18.52;88.09
45403;BME280;47427;51.976;5.326;2023-04-23T07:21:01;100523.84;;;19.57;86.22
45403;BME280;47427;51.976;5.326;2023-04-23T07:24:24;100532.56;;;19.68;76.60
45403;BME280;47427;51.976;5.326;2023-04-23T07:27:47;100528.72;;;19.85;79.48
45403;BME280;47427;51.976;5.326;2023-04-23T07:31:09;100522.38;;;19.94;75.32
45403;BME280;47427;51.976;5.326;2023-04-23T07:34:32;100516.03;;;20.47;74.77
45403;BME280;47427;51.976;5.326;2023-04-23T07:37:53;100512.47;;;21.32;59.33
45403;BME280;47427;51.976;5.326;2023-04-23T07:41:17;100511.19;;;21.49;59.59
45403;BME280;47427;51.976;5.326;2023-04-23T07:44:40;100517.72;;;22.72;55.46
45403;BME280;47427;51.976;5.326;2023-04-23T07:48:02;100511.91;;;22.88;51.97
45403;BME280;47427;51.976;5.326;2023-04-23T07:51:24;100511.16;;;22.84;53.41
45403;BME280;47427;51.976;5.326;2023-04-23T07:54:48;100509.59;;;23.90;50.71
45403;BME280;47427;51.976;5.326;2023-04-23T07:58:10;100508.31;;;24.01;51.42
45403;BME280;47427;51.976;5.326;2023-04-23T08:01:33;100501.09;;;24.77;47.46
45403;BME280;47427;51.976;5.326;2023-04-23T08:04:54;100492.69;;;25.76;46.17
45403;BME280;47427;51.976;5.326;2023-04-23T08:08:17;100496.84;;;25.41;44.37
45403;BME280;47427;51.976;5.326;2023-04-23T08:11:40;100499.75;;;26.61;42.75
45403;BME280;47427;51.976;5.326;2023-04-23T08:15:02;100488.56;;;26.70;40.04
45403;BME280;47427;51.976;5.326;2023-04-23T08:18:33;100489.13;;;27.14;40.34
45403;BME280;47427;51.976;5.326;2023-04-23T08:21:56;100476.84;;;27.64;40.47
45403;BME280;47427;51.976;5.326;2023-04-23T08:25:19;100482.78;;;28.58;37.63
45403;BME280;47427;51.976;5.326;2023-04-23T08:29:01;100477.31;;;28.42;36.68
45403;BME280;47427;51.976;5.326;2023-04-23T08:32:24;100480.59;;;28.31;37.16
45403;BME280;47427;51.976;5.326;2023-04-23T08:35:47;100477.34;;;29.85;35.10
45403;BME280;47427;51.976;5.326;2023-04-23T08:39:09;100473.97;;;28.54;35.79
45403;BME280;47427;51.976;5.326;2023-04-23T08:46:11;100473.56;;;30.17;33.11
45403;BME280;47427;51.976;5.326;2023-04-23T08:49:34;100471.88;;;29.40;33.03
45403;BME280;47427;51.976;5.326;2023-04-23T08:52:58;100467.81;;;30.95;31.86
45403;BME280;47427;51.976;5.326;2023-04-23T08:56:21;100458.16;;;31.72;31.08
45403;BME280;47427;51.976;5.326;2023-04-23T08:59:45;100461.13;;;29.38;33.45
45403;BME280;47427;51.976;5.326;2023-04-23T09:03:07;100458.94;;;29.29;33.44
45403;BME280;47427;51.976;5.326;2023-04-23T09:06:29;100466.13;;;29.30;33.51
45403;BME280;47427;51.976;5.326;2023-04-23T09:09:53;100464.84;;;30.12;33.08
45403;BME280;47427;51.976;5.326;2023-04-23T09:13:16;100466.16;;;30.35;33.36
45403;BME280;47427;51.976;5.326;2023-04-23T09:16:38;100471.56;;;30.78;30.55
45403;BME280;47427;51.976;5.326;2023-04-23T09:20:04;100463.75;;;30.59;31.49
45403;BME280;47427;51.976;5.326;2023-04-23T09:23:28;100456.75;;;30.98;29.40
45403;BME280;47427;51.976;5.326;2023-04-23T09:26:51;100459.78;;;29.62;31.07
45403;BME280;47427;51.976;5.326;2023-04-23T09:30:14;100448.81;;;29.49;31.38
45403;BME280;47427;51.976;5.326;2023-04-23T09:33:39;100455.16;;;28.68;32.43
45403;BME280;47427;51.976;5.326;2023-04-23T09:37:04;100454.59;;;29.27;30.83
45403;BME280;47427;51.976;5.326;2023-04-23T09:40:27;100451.84;;;26.48;36.33
45403;BME280;47427;51.976;5.326;2023-04-23T09:43:52;100448.03;;;28.34;34.31
45403;BME280;47427;51.976;5.326;2023-04-23T09:47:15;100436.69;;;27.23;35.50
45403;BME280;47427;51.976;5.326;2023-04-23T09:50:39;100446.75;;;28.90;33.41
45403;BME280;47427;51.976;5.326;2023-04-23T09:54:01;100441.38;;;29.06;32.43
45403;BME280;47427;51.976;5.326;2023-04-23T09:57:25;100440.47;;;28.90;31.65
45403;BME280;47427;51.976;5.326;2023-04-23T10:00:47;100442.06;;;28.12;33.99
45403;BME280;47427;51.976;5.326;2023-04-23T10:04:13;100441.72;;;29.16;30.46
45403;BME280;47427;51.976;5.326;2023-04-23T10:07:39;100435.31;;;28.03;31.56
45403;BME280;47427;51.976;5.326;2023-04-23T10:11:24;100435.25;;;29.80;30.68
45403;BME280;47427;51.976;5.326;2023-04-23T10:14:49;100429.59;;;30.85;27.50
45403;BME280;47427;51.976;5.326;2023-04-23T10:18:15;100432.00;;;30.90;28.25
45403;BME280;47427;51.976;5.326;2023-04-23T10:21:37;100429.13;;;26.93;32.99
45403;BME280;47427;51.976;5.326;2023-04-23T10:25:07;100434.00;;;28.61;30.71
45403;BME280;47427;51.976;5.326;2023-04-23T10:28:32;100431.13;;;26.50;33.69
45403;BME280;47427;51.976;5.326;2023-04-23T10:31:58;100423.28;;;22.70;39.90
45403;BME280;47427;51.976;5.326;2023-04-23T10:35:21;100430.41;;;22.71;41.15
45403;BME280;47427;51.976;5.326;2023-04-23T10:38:44;100409.06;;;25.41;37.10
45403;BME280;47427;51.976;5.326;2023-04-23T10:42:07;100416.25;;;26.81;33.63
45403;BME280;47427;51.976;5.326;2023-04-23T10:45:31;100400.50;;;29.12;31.48
45403;BME280;47427;51.976;5.326;2023-04-23T10:52:31;100393.28;;;27.64;34.88
45403;BME280;47427;51.976;5.326;2023-04-23T10:56:06;100377.34;;;27.59;30.91
45403;BME280;47427;51.976;5.326;2023-04-23T10:59:32;100381.16;;;28.88;29.17
45403;BME280;47427;51.976;5.326;2023-04-23T11:02:54;100379.22;;;25.05;33.56
45403;BME280;47427;51.976;5.326;2023-04-23T11:10:13;100368.22;;;25.11;35.87
45403;BME280;47427;51.976;5.326;2023-04-23T11:13:50;100365.47;;;22.94;37.74
45403;BME280;47427;51.976;5.326;2023-04-23T11:20:59;100365.22;;;22.46;39.62
45403;BME280;47427;51.976;5.326;2023-04-23T11:24:26;100356.59;;;23.72;38.97
45403;BME280;47427;51.976;5.326;2023-04-23T11:27:52;100355.78;;;25.52;34.43
45403;BME280;47427;51.976;5.326;2023-04-23T11:31:15;100335.66;;;26.78;33.27
45403;BME280;47427;51.976;5.326;2023-04-23T11:34:39;100331.94;;;27.34;32.50
45403;BME280;47427;51.976;5.326;2023-04-23T11:38:07;100332.09;;;27.66;30.69
45403;BME280;47427;51.976;5.326;2023-04-23T11:41:30;100310.13;;;24.44;35.47
45403;BME280;47427;51.976;5.326;2023-04-23T11:44:53;100312.22;;;23.13;38.27
45403;BME280;47427;51.976;5.326;2023-04-23T11:48:17;100309.28;;;22.38;39.44
45403;BME280;47427;51.976;5.326;2023-04-23T11:51:43;100301.47;;;23.15;38.82
45403;BME280;47427;51.976;5.326;2023-04-23T11:55:07;100286.88;;;23.49;38.87
45403;BME280;47427;51.976;5.326;2023-04-23T11:58:30;100291.34;;;22.70;40.42
45403;BME280;47427;51.976;5.326;2023-04-23T12:01:57;100289.50;;;23.00;38.63
45403;BME280;47427;51.976;5.326;2023-04-23T12:05:34;100289.13;;;23.36;38.97
45403;BME280;47427;51.976;5.326;2023-04-23T12:08:57;100289.25;;;23.58;38.62
45403;BME280;47427;51.976;5.326;2023-04-23T12:12:19;100279.69;;;23.76;37.49
45403;BME280;47427;51.976;5.326;2023-04-23T12:15:53;100282.19;;;23.55;38.26
45403;BME280;47427;51.976;5.326;2023-04-23T12:19:28;100269.66;;;24.05;36.99
45403;BME280;47427;51.976;5.326;2023-04-23T12:22:51;100260.69;;;24.28;37.06
45403;BME280;47427;51.976;5.326;2023-04-23T12:26:15;100260.22;;;25.86;34.41
45403;BME280;47427;51.976;5.326;2023-04-23T12:29:36;100257.44;;;26.81;32.76
45403;BME280;47427;51.976;5.326;2023-04-23T12:33:02;100244.34;;;27.94;31.62
45403;BME280;47427;51.976;5.326;2023-04-23T12:36:28;100257.16;;;29.00;30.00
45403;BME280;47427;51.976;5.326;2023-04-23T12:39:53;100238.19;;;25.78;34.36
45403;BME280;47427;51.976;5.326;2023-04-23T12:43:17;100240.72;;;24.36;36.17
45403;BME280;47427;51.976;5.326;2023-04-23T12:46:39;100231.31;;;23.55;37.20
45403;BME280;47427;51.976;5.326;2023-04-23T12:50:02;100232.72;;;22.37;40.65
45403;BME280;47427;51.976;5.326;2023-04-23T12:53:27;100223.34;;;22.24;41.03
45403;BME280;47427;51.976;5.326;2023-04-23T12:56:48;100220.28;;;21.78;42.71
45403;BME280;47427;51.976;5.326;2023-04-23T13:00:11;100214.59;;;20.94;43.53
45403;BME280;47427;51.976;5.326;2023-04-23T13:03:33;100207.09;;;20.75;44.94
45403;BME280;47427;51.976;5.326;2023-04-23T13:06:56;100194.03;;;20.66;45.92
45403;BME280;47427;51.976;5.326;2023-04-23T13:10:19;100198.13;;;20.42;46.59
45403;BME280;47427;51.976;5.326;2023-04-23T13:13:40;100191.84;;;20.09;47.24
45403;BME280;47427;51.976;5.326;2023-04-23T13:17:03;100182.78;;;19.77;48.19
45403;BME280;47427;51.976;5.326;2023-04-23T13:20:26;100180.97;;;19.79;49.15
45403;BME280;47427;51.976;5.326;2023-04-23T13:23:49;100181.66;;;19.87;48.00
45403;BME280;47427;51.976;5.326;2023-04-23T13:27:11;100178.47;;;19.72;47.71
45403;BME280;47427;51.976;5.326;2023-04-23T13:30:33;100174.69;;;19.82;48.98
45403;BME280;47427;51.976;5.326;2023-04-23T13:34:17;100174.28;;;20.00;47.74
45403;BME280;47427;51.976;5.326;2023-04-23T13:37:39;100173.69;;;20.25;47.71
45403;BME280;47427;51.976;5.326;2023-04-23T13:41:01;100166.19;;;20.41;46.98
45403;BME280;47427;51.976;5.326;2023-04-23T13:44:24;100156.78;;;21.27;46.50
45403;BME280;47427;51.976;5.326;2023-04-23T13:47:46;100155.13;;;21.82;44.57
45403;BME280;47427;51.976;5.326;2023-04-23T13:51:08;100144.91;;;21.08;46.26
45403;BME280;47427;51.976;5.326;2023-04-23T13:54:31;100137.75;;;20.77;48.04
45403;BME280;47427;51.976;5.326;2023-04-23T13:57:53;100146.28;;;20.20;48.24
45403;BME280;47427;51.976;5.326;2023-04-23T14:01:19;100129.06;;;19.60;50.02
45403;BME280;47427;51.976;5.326;2023-04-23T14:04:41;100123.16;;;19.45;50.97
45403;BME280;47427;51.976;5.326;2023-04-23T14:08:03;100118.97;;;19.76;51.02
45403;BME280;47427;51.976;5.326;2023-04-23T14:11:26;100110.56;;;19.52;50.31
45403;BME280;47427;51.976;5.326;2023-04-23T14:14:47;100112.88;;;19.70;50.02
45403;BME280;47427;51.976;5.326;2023-04-23T14:18:11;100109.16;;;19.36;49.10
45403;BME280;47427;51.976;5.326;2023-04-23T14:21:33;100109.41;;;19.25;49.91
45403;BME280;47427;51.976;5.326;2023-04-23T14:25:02;100094.03;;;18.96;50.49
45403;BME280;47427;51.976;5.326;2023-04-23T14:28:33;100098.06;;;18.22;52.28
45403;BME280;47427;51.976;5.326;2023-04-23T14:31:55;100093.13;;;17.99;55.49
45403;BME280;47427;51.976;5.326;2023-04-23T14:35:16;100106.53;;;17.26;61.02
45403;BME280;47427;51.976;5.326;2023-04-23T14:38:40;100112.16;;;16.08;75.98
45403;BME280;47427;51.976;5.326;2023-04-23T14:42:02;100121.72;;;14.41;95.68
45403;BME280;47427;51.976;5.326;2023-04-23T14:45:24;100130.47;;;13.71;100.00
45403;BME280;47427;51.976;5.326;2023-04-23T14:48:47;100147.88;;;13.19;100.00
45403;BME280;47427;51.976;5.326;2023-04-23T14:52:08;100152.00;;;12.71;100.00
45403;BME280;47427;51.976;5.326;2023-04-23T14:55:31;100176.31;;;12.40;100.00
45403;BME280;47427;51.976;5.326;2023-04-23T14:58:54;100166.44;;;12.08;100.00
45403;BME280;47427;51.976;5.326;2023-04-23T15:02:16;100167.41;;;12.22;100.00
45403;BME280;47427;51.976;5.326;2023-04-23T15:05:39;100164.22;;;12.63;100.00
45403;BME280;47427;51.976;5.326;2023-04-23T15:09:21;100169.31;;;12.39;100.00
45403;BME280;47427;51.976;5.326;2023-04-23T15:16:30;100167.47;;;12.30;100.00
45403;BME280;47427;51.976;5.326;2023-04-23T15:19:53;100163.13;;;12.35;100.00
45403;BME280;47427;51.976;5.326;2023-04-23T15:23:17;100170.25;;;12.50;100.00
45403;BME280;47427;51.976;5.326;2023-04-23T15:26:42;100168.38;;;12.32;100.00
45403;BME280;47427;51.976;5.326;2023-04-23T15:30:06;100163.72;;;12.02;100.00
45403;BME280;47427;51.976;5.326;2023-04-23T15:33:29;100164.53;;;11.95;100.00
45403;BME280;47427;51.976;5.326;2023-04-23T15:36:51;100160.94;;;11.86;100.00
45403;BME280;47427;51.976;5.326;2023-04-23T15:40:13;100152.13;;;11.84;100.00
45403;BME280;47427;51.976;5.326;2023-04-23T15:43:35;100155.53;;;11.73;100.00
45403;BME280;47427;51.976;5.326;2023-04-23T15:46:58;100163.38;;;11.69;100.00
45403;BME280;47427;51.976;5.326;2023-04-23T15:50:22;100155.31;;;11.54;100.00
45403;BME280;47427;51.976;5.326;2023-04-23T15:53:46;100143.31;;;11.79;100.00
45403;BME280;47427;51.976;5.326;2023-04-23T15:57:09;100141.78;;;11.97;100.00
45403;BME280;47427;51.976;5.326;2023-04-23T16:00:32;100149.59;;;11.89;100.00
45403;BME280;47427;51.976;5.326;2023-04-23T16:07:37;100133.78;;;11.87;100.00
45403;BME280;47427;51.976;5.326;2023-04-23T16:10:59;100137.38;;;11.94;100.00
45403;BME280;47427;51.976;5.326;2023-04-23T16:14:21;100130.34;;;11.91;100.00
45403;BME280;47427;51.976;5.326;2023-04-23T16:18:23;100111.84;;;11.84;100.00
45403;BME280;47427;51.976;5.326;2023-04-23T16:21:46;100103.72;;;11.61;100.00
45403;BME280;47427;51.976;5.326;2023-04-23T16:25:08;100096.78;;;11.66;100.00
45403;BME280;47427;51.976;5.326;2023-04-23T16:28:30;100090.00;;;11.88;100.00
45403;BME280;47427;51.976;5.326;2023-04-23T16:32:11;100079.38;;;11.82;100.00
45403;BME280;47427;51.976;5.326;2023-04-23T16:35:35;100067.41;;;12.11;100.00
45403;BME280;47427;51.976;5.326;2023-04-23T16:38:58;100062.09;;;12.07;100.00
45403;BME280;47427;51.976;5.326;2023-04-23T16:42:20;100044.66;;;12.20;100.00
45403;BME280;47427;51.976;5.326;2023-04-23T16:45:44;100037.66;;;12.22;100.00
45403;BME280;47427;51.976;5.326;2023-04-23T16:49:06;100013.19;;;12.33;100.00
45403;BME280;47427;51.976;5.326;2023-04-23T16:52:28;100001.78;;;12.34;100.00
45403;BME280;47427;51.976;5.326;2023-04-23T16:55:51;99992.22;;;12.49;100.00
45403;BME280;47427;51.976;5.326;2023-04-23T16:59:13;99982.59;;;12.52;100.00
45403;BME280;47427;51.976;5.326;2023-04-23T17:02:35;99967.72;;;12.64;100.00
45403;BME280;47427;51.976;5.326;2023-04-23T17:06:19;99960.75;;;12.79;100.00
45403;BME280;47427;51.976;5.326;2023-04-23T17:09:44;99943.19;;;12.80;100.00
45403;BME280;47427;51.976;5.326;2023-04-23T17:13:07;99936.19;;;12.79;100.00
45403;BME280;47427;51.976;5.326;2023-04-23T17:16:30;99935.34;;;12.92;100.00
45403;BME280;47427;51.976;5.326;2023-04-23T17:19:51;99924.75;;;12.68;100.00
45403;BME280;47427;51.976;5.326;2023-04-23T17:23:14;99924.78;;;12.82;100.00
45403;BME280;47427;51.976;5.326;2023-04-23T17:26:37;99912.53;;;12.90;100.00
45403;BME280;47427;51.976;5.326;2023-04-23T17:29:59;99908.94;;;12.63;100.00
45403;BME280;47427;51.976;5.326;2023-04-23T17:33:22;99898.41;;;12.54;100.00
45403;BME280;47427;51.976;5.326;2023-04-23T17:36:44;99887.88;;;12.55;100.00
45403;BME280;47427;51.976;5.326;2023-04-23T17:40:07;99892.28;;;12.60;100.00
45403;BME280;47427;51.976;5.326;2023-04-23T17:43:31;99883.50;;;12.48;100.00
45403;BME280;47427;51.976;5.326;2023-04-23T17:46:54;99881.72;;;12.52;100.00
45403;BME280;47427;51.976;5.326;2023-04-23T17:50:17;99872.97;;;12.57;100.00
45403;BME280;47427;51.976;5.326;2023-04-23T17:53:40;99872.97;;;12.54;100.00
45403;BME280;47427;51.976;5.326;2023-04-23T17:57:28;99862.38;;;12.34;100.00
45403;BME280;47427;51.976;5.326;2023-04-23T18:00:51;99848.34;;;12.23;100.00
45403;BME280;47427;51.976;5.326;2023-04-23T18:04:13;99842.16;;;12.17;100.00
45403;BME280;47427;51.976;5.326;2023-04-23T18:07:37;99843.91;;;12.14;100.00